Time;durP1;ratioP1;P1;durP2;ratioP2;P2;SDS_P1;SDS_P2;PMS_P1;PMS_P2;Temp;Humidity;BMP_temperature;BMP_pressure;BME280_temperature;BME280_humidity;BME280_pressure;Samples;Min_cycle;Max_cycle;Signal;HPM_P1;HPM_P2
2021/10/19 00:00:08;;;;;;;3.20;2.85;;;15.20;75.90;;;;;;5114826;27;20521;-62
2021/10/19 00:02:35;;;;;;;;;;;15.20;75.90;;;;;;5133199;27;20043;-64
2021/10/19 00:05:05;;;;;;;3.88;2.88;;;15.20;75.80;;;;;;5133391;27;20021;-63
2021/10/19 00:07:30;;;;;;;3.30;2.67;;;15.20;76.00;;;;;;5133147;27;20413;-63
2021/10/19 00:09:56;;;;;;;3.38;2.53;;;15.20;76.00;;;;;;5133345;27;20043;-64
2021/10/19 00:12:22;;;;;;;3.47;2.80;;;15.20;76.00;;;;;;5114465;28;20035;-64
2021/10/19 00:14:48;;;;;;;3.83;3.00;;;15.20;75.90;;;;;;5133164;28;20130;-62
2021/10/19 00:17:14;;;;;;;3.53;2.97;;;15.20;75.90;;;;;;5132532;28;20138;-64
2021/10/19 00:19:39;;;;;;;3.97;3.10;;;15.20;75.90;;;;;;5133432;28;20137;-62
2021/10/19 00:22:05;;;;;;;3.05;2.75;;;15.20;75.90;;;;;;5114114;28;20054;-56
2021/10/19 00:24:31;;;;;;;2.88;2.58;;;15.20;75.90;;;;;;5135326;27;20100;-64
2021/10/19 00:26:57;;;;;;;3.45;3.00;;;15.20;75.90;;;;;;5137361;27;20194;-57
2021/10/19 00:29:22;;;;;;;3.47;2.97;;;15.20;75.90;;;;;;5137530;27;20036;-63
2021/10/19 00:31:50;;;;;;;3.30;2.85;;;15.20;75.90;;;;;;5137434;27;20050;-62
2021/10/19 00:34:15;;;;;;;3.10;2.70;;;15.20;75.90;;;;;;5136377;27;20471;-63
2021/10/19 00:36:41;;;;;;;3.58;2.75;;;15.20;75.90;;;;;;5137031;27;20043;-63
2021/10/19 00:39:07;;;;;;;2.88;2.40;;;15.20;75.90;;;;;;5136897;27;20166;-61
2021/10/19 00:41:33;;;;;;;3.72;2.60;;;15.20;75.90;;;;;;5137037;27;20039;-64
2021/10/19 00:43:59;;;;;;;3.58;3.00;;;15.30;76.00;;;;;;5136555;27;20456;-62
2021/10/19 00:46:24;;;;;;;3.15;2.78;;;15.20;75.90;;;;;;5137180;27;20054;-62
2021/10/19 00:48:50;;;;;;;3.38;2.85;;;15.20;75.90;;;;;;5136697;27;20047;-62
2021/10/19 00:51:16;;;;;;;3.45;2.80;;;15.20;75.90;;;;;;5137049;27;20043;-64
2021/10/19 00:53:42;;;;;;;3.33;2.67;;;15.20;75.90;;;;;;5136614;27;20057;-66
2021/10/19 00:56:09;;;;;;;3.42;2.90;;;15.20;75.90;;;;;;5136295;27;20126;-65
2021/10/19 00:58:37;;;;;;;3.35;2.80;;;15.20;75.90;;;;;;5136874;27;20043;-65
2021/10/19 01:01:03;;;;;;;3.85;2.97;;;15.20;75.90;;;;;;5136672;27;20122;-65
2021/10/19 01:03:28;;;;;;;3.95;2.72;;;15.20;75.90;;;;;;5136487;27;20486;-66
2021/10/19 01:05:54;;;;;;;3.80;3.20;;;15.10;75.90;;;;;;5135731;27;20138;-65
2021/10/19 01:08:20;;;;;;;3.30;2.72;;;15.20;75.90;;;;;;5117935;27;20043;-65
2021/10/19 01:10:46;;;;;;;3.28;2.88;;;15.20;75.90;;;;;;5136457;27;20078;-66
2021/10/19 01:13:12;;;;;;;3.65;2.70;;;15.20;76.00;;;;;;5136603;27;20458;-66
2021/10/19 01:15:38;;;;;;;4.82;3.40;;;15.20;75.90;;;;;;5136160;27;20142;-66
2021/10/19 01:18:04;;;;;;;3.40;2.83;;;15.20;75.90;;;;;;5136111;27;20094;-66
2021/10/19 01:20:32;;;;;;;3.60;2.80;;;15.20;75.90;;;;;;5135828;27;20079;-66
2021/10/19 01:23:00;;;;;;;3.22;2.88;;;15.20;75.90;;;;;;5136022;27;20039;-65
2021/10/19 01:25:28;;;;;;;3.50;2.78;;;15.20;75.90;;;;;;5135444;27;20058;-65
2021/10/19 01:28:03;;;;;;;3.50;3.17;;;15.20;75.90;;;;;;5135903;27;20050;-66
2021/10/19 01:30:29;;;;;;;3.10;2.50;;;15.20;75.90;;;;;;5135581;27;20507;-65
2021/10/19 01:32:56;;;;;;;3.97;2.97;;;15.20;76.00;;;;;;5136088;27;20039;-64
2021/10/19 01:35:36;;;;;;;3.92;3.47;;;15.20;76.00;;;;;;5135284;27;20046;-65
2021/10/19 01:38:03;;;;;;;4.10;3.30;;;15.20;75.90;;;;;;5135455;27;20039;-65
2021/10/19 01:40:29;;;;;;;3.50;3.10;;;15.20;76.00;;;;;;5136219;27;20054;-65
2021/10/19 01:42:55;;;;;;;3.25;2.95;;;15.20;75.90;;;;;;5135987;27;20487;-65
2021/10/19 01:45:20;;;;;;;4.20;3.17;;;15.20;75.90;;;;;;5136125;27;20122;-59
2021/10/19 01:47:46;;;;;;;4.47;3.30;;;15.20;75.90;;;;;;5135903;27;20043;-65
2021/10/19 01:50:15;;;;;;;3.47;2.90;;;15.20;75.90;;;;;;5135856;27;20043;-59
2021/10/19 01:52:41;;;;;;;3.45;2.78;;;15.20;75.90;;;;;;5135017;27;20688;-60
2021/10/19 01:55:08;;;;;;;3.28;2.50;;;15.20;75.90;;;;;;5135615;27;20047;-60
2021/10/19 01:57:35;;;;;;;3.10;2.53;;;15.20;75.90;;;;;;5135605;27;20050;-60
2021/10/19 02:00:02;;;;;;;3.60;3.05;;;15.20;75.90;;;;;;5136093;27;20118;-58
2021/10/19 02:02:27;;;;;;;3.20;2.90;;;15.20;75.90;;;;;;5135994;27;20043;-58
2021/10/19 02:04:53;;;;;;;3.22;2.83;;;15.20;76.00;;;;;;5135235;27;20065;-58
2021/10/19 02:07:19;;;;;;;3.38;2.65;;;15.20;76.00;;;;;;5135287;27;20410;-58
2021/10/19 02:09:45;;;;;;;3.42;3.13;;;15.20;76.00;;;;;;5134574;27;20092;-64
2021/10/19 02:12:11;;;;;;;3.83;3.03;;;15.20;75.90;;;;;;5135617;27;20035;-58
2021/10/19 02:14:36;;;;;;;3.35;3.03;;;15.20;76.00;;;;;;5116768;27;20057;-61
2021/10/19 02:17:03;;;;;;;3.92;2.95;;;15.20;75.90;;;;;;5134737;27;20406;-64
2021/10/19 02:19:29;;;;;;;3.58;3.05;;;15.20;75.90;;;;;;5135227;27;20048;-60
2021/10/19 02:21:56;;;;;;;3.83;3.20;;;15.20;76.00;;;;;;5099830;27;20079;-65
2021/10/19 02:24:22;;;;;;;3.03;2.63;;;15.20;76.00;;;;;;5134534;27;20100;-54
2021/10/19 02:26:48;;;;;;;3.80;3.05;;;15.20;75.90;;;;;;5134715;27;20089;-63
2021/10/19 02:29:16;;;;;;;3.53;3.10;;;15.20;76.00;;;;;;5134931;27;20042;-58
2021/10/19 02:31:42;;;;;;;3.95;2.60;;;15.20;75.90;;;;;;5135234;27;20046;-64
2021/10/19 02:34:08;;;;;;;3.47;2.95;;;15.20;76.00;;;;;;5134832;27;20065;-65
2021/10/19 02:36:35;;;;;;;3.60;3.08;;;15.20;76.00;;;;;;5134372;27;20039;-61
2021/10/19 02:39:02;;;;;;;4.15;3.60;;;15.20;75.90;;;;;;5134650;27;20035;-59
2021/10/19 02:41:28;;;;;;;3.65;3.30;;;15.20;76.00;;;;;;5134101;27;20050;-64
2021/10/19 02:43:54;;;;;;;3.03;2.67;;;15.20;76.00;;;;;;5116227;27;20407;-64
2021/10/19 02:46:21;;;;;;;4.03;3.30;;;15.20;76.00;;;;;;5133789;27;20461;-58
2021/10/19 02:48:47;;;;;;;3.05;2.75;;;15.20;75.90;;;;;;5134319;27;20047;-64
2021/10/19 02:51:13;;;;;;;3.47;3.03;;;15.20;76.00;;;;;;5113298;27;20089;-63
2021/10/19 02:53:38;;;;;;;3.78;3.08;;;15.20;75.90;;;;;;5113962;28;20108;-58
2021/10/19 02:56:04;;;;;;;3.05;2.72;;;15.20;76.00;;;;;;5113115;28;20484;-58
2021/10/19 02:58:30;;;;;;;3.40;3.08;;;15.20;76.00;;;;;;5121680;27;20344;-58
2021/10/19 03:00:55;;;;;;;4.53;3.35;;;15.30;76.70;;;;;;5115985;27;20486;-63
2021/10/19 03:03:21;;;;;;;4.03;3.22;;;15.20;75.90;;;;;;5115855;27;20046;-63
2021/10/19 03:05:46;;;;;;;3.22;2.90;;;15.20;76.00;;;;;;5134243;27;20088;-60
2021/10/19 03:08:12;;;;;;;3.78;3.00;;;15.20;75.90;;;;;;5115401;27;20039;-59
2021/10/19 03:10:38;;;;;;;3.80;3.15;;;15.20;76.00;;;;;;5134046;27;20047;-59
2021/10/19 03:13:04;;;;;;;3.22;2.90;;;15.20;76.00;;;;;;5133470;27;20043;-58
2021/10/19 03:15:29;;;;;;;3.15;2.80;;;15.20;76.00;;;;;;5134298;27;20042;-65
2021/10/19 03:17:55;;;;;;;3.45;2.80;;;15.20;76.00;;;;;;5133743;27;20087;-65
2021/10/19 03:20:21;;;;;;;3.95;2.80;;;15.20;76.00;;;;;;5133553;27;20031;-65
2021/10/19 03:22:46;;;;;;;3.63;3.03;;;15.20;76.00;;;;;;5133877;27;20051;-65
2021/10/19 03:25:12;;;;;;;3.90;3.08;;;15.20;76.00;;;;;;5133846;27;20053;-65
2021/10/19 03:27:38;;;;;;;4.47;3.50;;;15.20;76.00;;;;;;5133181;27;20039;-65
2021/10/19 03:30:05;;;;;;;3.00;2.70;;;15.20;76.00;;;;;;5133643;27;20068;-63
2021/10/19 03:32:31;;;;;;;3.83;2.92;;;15.20;76.00;;;;;;5133911;27;20394;-63
2021/10/19 03:34:58;;;;;;;3.45;3.08;;;15.20;76.00;;;;;;5133765;27;20043;-65
2021/10/19 03:37:24;;;;;;;3.97;2.90;;;15.20;76.00;;;;;;5114898;27;20055;-65
2021/10/19 03:39:49;;;;;;;3.15;2.55;;;15.30;76.00;;;;;;5133600;27;20506;-62
2021/10/19 03:42:15;;;;;;;3.42;3.13;;;15.20;76.00;;;;;;5133225;27;20039;-62
2021/10/19 03:44:41;;;;;;;4.40;2.90;;;15.30;76.00;;;;;;5114122;27;20146;-65
2021/10/19 03:47:07;;;;;;;3.47;2.97;;;15.20;76.00;;;;;;5133516;27;20456;-65
2021/10/19 03:49:33;;;;;;;3.53;2.90;;;15.20;76.00;;;;;;5133794;27;20031;-65
2021/10/19 03:51:58;;;;;;;3.92;3.25;;;15.20;76.00;;;;;;5133454;27;20050;-65
2021/10/19 03:54:24;;;;;;;4.00;2.70;;;15.20;76.00;;;;;;5133430;27;20035;-65
2021/10/19 03:56:50;;;;;;;3.63;3.00;;;15.20;76.00;;;;;;5133507;27;20055;-65
2021/10/19 03:59:15;;;;;;;3.45;2.92;;;15.20;76.00;;;;;;5132454;27;20039;-65
2021/10/19 04:01:41;;;;;;;3.72;3.10;;;15.20;76.00;;;;;;5133412;27;20039;-64
2021/10/19 04:04:07;;;;;;;4.07;3.25;;;15.20;76.00;;;;;;5133317;27;20035;-65
2021/10/19 04:06:32;;;;;;;3.17;2.88;;;15.10;75.90;;;;;;5133810;27;20035;-58
2021/10/19 04:08:58;;;;;;;3.28;2.65;;;15.20;76.00;;;;;;5133762;27;20050;-57
2021/10/19 04:11:24;;;;;;;4.68;3.30;;;15.20;76.00;;;;;;5133236;27;20039;-60
2021/10/19 04:13:49;;;;;;;3.65;3.33;;;15.20;76.00;;;;;;5113930;28;20047;-63
2021/10/19 04:16:15;;;;;;;4.85;3.20;;;15.30;76.10;;;;;;5131994;28;20066;-64
2021/10/19 04:18:41;;;;;;;4.15;3.00;;;15.20;76.00;;;;;;5133467;28;20070;-58
2021/10/19 04:21:07;;;;;;;3.47;3.15;;;15.20;76.00;;;;;;5133528;28;20043;-58
2021/10/19 04:23:32;;;;;;;3.20;2.90;;;15.20;76.00;;;;;;5132872;28;20134;-59
2021/10/19 04:25:58;;;;;;;3.30;3.00;;;15.20;76.00;;;;;;5133027;28;20035;-59
2021/10/19 04:28:24;;;;;;;2.95;2.65;;;15.20;76.00;;;;;;5133148;28;20039;-59
2021/10/19 04:30:51;;;;;;;3.90;3.08;;;15.20;76.00;;;;;;5132433;28;20047;-59
2021/10/19 04:33:17;;;;;;;3.63;3.17;;;15.30;76.10;;;;;;5132924;28;20142;-57
2021/10/19 04:35:43;;;;;;;3.70;3.08;;;15.30;76.10;;;;;;5132566;28;20041;-59
2021/10/19 04:38:09;;;;;;;3.95;3.10;;;15.20;76.00;;;;;;5132954;28;20051;-59
2021/10/19 04:40:35;;;;;;;4.20;2.78;;;15.20;76.00;;;;;;5133188;28;20042;-63
2021/10/19 04:43:01;;;;;;;3.33;2.80;;;15.20;76.00;;;;;;5133169;28;20053;-61
2021/10/19 04:45:28;;;;;;;4.20;3.22;;;15.20;76.00;;;;;;5131742;28;20125;-59
2021/10/19 04:47:58;;;;;;;4.45;3.30;;;15.20;76.00;;;;;;5132079;28;20443;-58
2021/10/19 04:50:24;;;;;;;3.53;3.10;;;15.20;76.00;;;;;;5132757;28;20047;-61
2021/10/19 04:52:49;;;;;;;3.10;2.80;;;15.20;76.00;;;;;;5133111;28;20103;-60
2021/10/19 04:55:15;;;;;;;3.58;3.08;;;15.10;76.00;;;;;;5132584;28;20062;-64
2021/10/19 04:57:41;;;;;;;3.28;2.75;;;15.20;76.10;;;;;;5132732;28;20035;-60
2021/10/19 05:00:07;;;;;;;3.22;2.85;;;15.20;76.00;;;;;;5132737;28;20050;-59
2021/10/19 05:02:33;;;;;;;4.00;3.03;;;15.20;76.00;;;;;;5131910;28;20141;-62
2021/10/19 05:04:58;;;;;;;3.15;2.80;;;15.20;76.00;;;;;;5132889;28;20118;-59
2021/10/19 05:07:24;;;;;;;3.90;3.20;;;15.20;76.00;;;;;;5132578;28;20131;-57
2021/10/19 05:09:50;;;;;;;3.63;3.00;;;15.20;76.00;;;;;;5133498;27;20062;-61
2021/10/19 05:12:15;;;;;;;3.30;2.72;;;15.30;76.10;;;;;;5136558;27;20054;-58
2021/10/19 05:14:41;;;;;;;3.30;2.85;;;15.20;76.00;;;;;;5136688;27;20031;-65
2021/10/19 05:17:07;;;;;;;3.20;2.90;;;15.20;76.00;;;;;;5135797;27;20047;-58
2021/10/19 05:19:32;;;;;;;3.53;2.90;;;15.20;76.10;;;;;;5135944;27;20058;-57
2021/10/19 05:21:58;;;;;;;3.25;2.90;;;15.20;76.10;;;;;;5136260;27;20529;-58
2021/10/19 05:24:24;;;;;;;3.28;2.95;;;15.20;76.10;;;;;;5136364;27;20456;-59
2021/10/19 05:26:50;;;;;;;3.22;2.72;;;15.20;76.10;;;;;;5136118;27;20043;-59
2021/10/19 05:29:15;;;;;;;3.42;2.85;;;15.20;76.10;;;;;;5134968;27;20035;-59
2021/10/19 05:31:41;;;;;;;3.25;2.80;;;15.20;76.10;;;;;;5136169;27;20471;-62
2021/10/19 05:34:07;;;;;;;3.83;3.00;;;15.20;76.10;;;;;;5135431;27;20047;-61
2021/10/19 05:36:33;;;;;;;3.25;2.65;;;15.20;76.10;;;;;;5135863;27;20129;-63
2021/10/19 05:38:58;;;;;;;3.50;2.95;;;15.20;76.10;;;;;;5135534;27;20103;-59
2021/10/19 05:41:24;;;;;;;2.80;2.53;;;15.30;76.10;;;;;;5135908;27;20047;-62
2021/10/19 05:43:49;;;;;;;3.28;2.60;;;15.20;76.10;;;;;;5136184;27;20054;-64
2021/10/19 05:46:15;;;;;;;3.45;2.83;;;15.20;76.10;;;;;;5117422;27;20122;-64
2021/10/19 05:48:41;;;;;;;3.47;2.72;;;15.20;76.10;;;;;;5135584;27;20129;-65
2021/10/19 05:51:07;;;;;;;4.75;2.90;;;15.20;76.10;;;;;;5135045;27;20047;-64
2021/10/19 05:53:32;;;;;;;3.35;2.80;;;15.10;76.00;;;;;;5117171;27;20048;-66
2021/10/19 05:55:58;;;;;;;3.22;2.83;;;15.20;76.10;;;;;;5135971;27;20043;-65
2021/10/19 05:58:24;;;;;;;3.22;2.85;;;15.20;76.10;;;;;;5135698;27;20043;-65
2021/10/19 06:00:50;;;;;;;3.50;2.92;;;15.20;76.10;;;;;;5135322;27;20078;-63
2021/10/19 06:03:16;;;;;;;3.67;3.03;;;15.20;76.10;;;;;;5135784;27;20161;-63
2021/10/19 06:05:41;;;;;;;4.15;3.00;;;15.20;76.10;;;;;;5135112;27;20475;-62
2021/10/19 06:08:07;;;;;;;4.70;3.10;;;15.20;76.10;;;;;;5135352;27;20054;-63
2021/10/19 06:10:33;;;;;;;2.63;2.42;;;15.20;76.10;;;;;;5135489;27;20035;-65
2021/10/19 06:12:59;;;;;;;3.38;2.95;;;15.20;76.10;;;;;;5135783;27;20078;-63
2021/10/19 06:15:25;;;;;;;3.75;2.85;;;15.20;76.10;;;;;;5135132;27;20130;-60
2021/10/19 06:17:52;;;;;;;3.33;2.90;;;15.20;76.10;;;;;;5134285;27;20065;-63
2021/10/19 06:20:17;;;;;;;4.05;2.83;;;15.20;76.10;;;;;;5134151;27;20082;-63
2021/10/19 06:22:43;;;;;;;3.88;2.92;;;15.20;76.80;;;;;;5134083;27;20079;-63
2021/10/19 06:25:09;;;;;;;3.42;2.80;;;15.20;76.80;;;;;;5134331;27;20035;-60
2021/10/19 06:27:35;;;;;;;3.17;2.72;;;15.20;76.10;;;;;;5134399;27;20039;-63
2021/10/19 06:30:03;;;;;;;3.22;2.60;;;15.30;76.20;;;;;;5116799;27;20039;-58
2021/10/19 06:32:29;;;;;;;3.35;2.92;;;15.20;76.10;;;;;;5149433;27;20402;-64
2021/10/19 06:34:54;;;;;;;3.28;2.92;;;15.20;76.70;;;;;;5116321;27;20047;-64
2021/10/19 06:37:20;;;;;;;3.70;2.45;;;15.20;76.10;;;;;;5134718;27;20074;-61
2021/10/19 06:39:46;;;;;;;3.35;2.90;;;15.20;76.10;;;;;;5106177;27;20546;-64
2021/10/19 06:42:12;;;;;;;3.72;2.78;;;15.30;76.20;;;;;;5134220;27;20035;-63
2021/10/19 06:44:37;;;;;;;3.40;2.95;;;15.20;76.10;;;;;;5135094;27;20071;-63
2021/10/19 06:47:03;;;;;;;3.70;2.97;;;15.20;76.10;;;;;;5150601;27;20043;-64
2021/10/19 06:49:29;;;;;;;3.33;2.78;;;15.20;76.10;;;;;;5134372;27;20035;-61
2021/10/19 06:51:54;;;;;;;3.13;2.80;;;15.20;76.10;;;;;;5115611;27;20055;-63
2021/10/19 06:54:20;;;;;;;4.28;2.70;;;15.30;76.20;;;;;;5133740;27;20031;-60
2021/10/19 06:56:45;;;;;;;3.22;2.67;;;15.20;76.10;;;;;;5134366;27;20491;-63
2021/10/19 06:59:11;;;;;;;4.43;2.97;;;15.20;76.10;;;;;;5134502;27;20043;-62
2021/10/19 07:01:37;;;;;;;2.95;2.60;;;15.20;76.10;;;;;;5134417;27;20092;-62
2021/10/19 07:04:02;;;;;;;3.55;2.95;;;15.20;76.10;;;;;;5134051;27;20053;-64
2021/10/19 07:06:31;;;;;;;3.33;2.85;;;15.20;76.10;;;;;;5134360;27;20035;-57
2021/10/19 07:08:57;;;;;;;3.38;2.95;;;15.20;76.10;;;;;;5115590;27;20520;-58
2021/10/19 07:11:26;;;;;;;3.35;3.05;;;15.20;76.10;;;;;;5133412;27;20050;-64
2021/10/19 07:13:53;;;;;;;3.42;3.00;;;15.20;76.70;;;;;;5133743;27;20372;-61
2021/10/19 07:16:19;;;;;;;3.17;2.50;;;15.20;76.20;;;;;;5115240;27;20043;-64
2021/10/19 07:18:44;;;;;;;3.28;2.97;;;15.20;76.10;;;;;;5134009;27;20131;-63
2021/10/19 07:21:11;;;;;;;3.28;2.72;;;15.20;76.10;;;;;;5134223;27;20086;-63
2021/10/19 07:23:37;;;;;;;3.58;3.10;;;15.20;76.10;;;;;;5133819;27;20412;-62
2021/10/19 07:26:02;;;;;;;2.97;2.67;;;15.20;76.10;;;;;;5133198;27;20061;-61
2021/10/19 07:28:28;;;;;;;3.90;2.55;;;15.20;76.10;;;;;;5134022;27;20078;-63
2021/10/19 07:30:54;;;;;;;2.72;2.40;;;15.20;76.10;;;;;;5134002;27;20039;-61
2021/10/19 07:33:20;;;;;;;3.28;2.80;;;15.20;76.10;;;;;;5133112;27;20265;-64
2021/10/19 07:35:46;;;;;;;2.53;2.33;;;15.20;76.10;;;;;;5133409;27;20454;-59
2021/10/19 07:38:12;;;;;;;3.08;2.47;;;15.20;76.10;;;;;;5133126;27;20074;-61
2021/10/19 07:40:38;;;;;;;3.20;2.83;;;15.20;76.10;;;;;;5133354;27;20042;-60
2021/10/19 07:43:04;;;;;;;3.17;2.70;;;15.20;76.10;;;;;;5133049;27;20419;-58
2021/10/19 07:45:31;;;;;;;3.30;2.95;;;15.20;76.10;;;;;;5133348;27;20493;-59
2021/10/19 07:48:01;;;;;;;3.28;2.92;;;15.20;76.10;;;;;;5115169;27;20141;-58
2021/10/19 07:50:29;;;;;;;3.30;3.00;;;15.20;76.20;;;;;;5133000;27;20464;-57
2021/10/19 07:53:00;;;;;;;3.55;2.78;;;15.30;76.20;;;;;;5133407;27;20368;-63
2021/10/19 07:55:27;;;;;;;3.22;2.65;;;15.20;76.20;;;;;;5133221;27;20125;-59
2021/10/19 07:57:54;;;;;;;3.35;3.05;;;15.20;76.20;;;;;;5132451;27;20051;-60
2021/10/19 08:00:28;;;;;;;3.38;2.60;;;15.20;76.20;;;;;;5115266;28;20039;-62
2021/10/19 08:02:55;;;;;;;3.53;3.03;;;15.20;76.50;;;;;;5133711;27;20130;-60
2021/10/19 08:05:21;;;;;;;3.90;2.88;;;15.20;76.20;;;;;;5132910;27;20055;-65
2021/10/19 08:07:49;;;;;;;4.47;3.30;;;15.20;76.20;;;;;;5132272;27;20058;-65
2021/10/19 08:10:20;;;;;;;3.13;2.80;;;15.20;76.20;;;;;;5133279;27;20039;-66
2021/10/19 08:12:47;;;;;;;4.15;3.38;;;15.10;76.10;;;;;;5133298;27;20078;-65
2021/10/19 08:15:15;;;;;;;3.08;2.67;;;15.20;76.20;;;;;;5133747;28;20035;-65
2021/10/19 08:17:41;;;;;;;3.10;2.75;;;15.20;76.20;;;;;;5132964;28;20059;-62
2021/10/19 08:20:08;;;;;;;2.72;2.42;;;15.20;76.20;;;;;;5133573;28;20497;-64
2021/10/19 08:22:34;;;;;;;3.10;2.60;;;15.20;76.20;;;;;;5114775;28;20043;-64
2021/10/19 08:25:03;;;;;;;2.95;2.50;;;15.20;76.20;;;;;;5132920;28;20096;-64
2021/10/19 08:27:28;;;;;;;2.95;2.65;;;15.20;76.20;;;;;;5133026;28;20055;-64
2021/10/19 08:29:54;;;;;;;2.42;2.22;;;15.20;76.30;;;;;;5132627;28;20099;-63
2021/10/19 08:32:20;;;;;;;3.15;2.47;;;15.20;76.20;;;;;;5133615;28;20039;-64
2021/10/19 08:34:46;;;;;;;3.00;2.65;;;15.20;76.20;;;;;;5133132;28;20047;-64
2021/10/19 08:37:13;;;;;;;3.13;2.45;;;15.20;76.20;;;;;;5132756;28;20376;-63
2021/10/19 08:39:38;;;;;;;2.80;2.35;;;15.20;76.20;;;;;;5132543;28;20036;-63
2021/10/19 08:42:04;;;;;;;2.90;2.47;;;15.20;76.20;;;;;;5132910;28;20379;-63
2021/10/19 08:44:30;;;;;;;3.13;2.83;;;15.20;76.20;;;;;;5133075;27;20423;-63
2021/10/19 08:46:56;;;;;;;3.10;2.80;;;15.20;76.20;;;;;;5137198;27;20039;-65
2021/10/19 08:49:22;;;;;;;2.80;2.40;;;15.20;76.30;;;;;;5152832;27;20107;-63
2021/10/19 08:51:47;;;;;;;2.80;2.60;;;15.20;76.30;;;;;;5136921;27;20091;-63
2021/10/19 08:54:13;;;;;;;2.40;2.20;;;15.20;76.30;;;;;;5118192;27;20035;-64
2021/10/19 08:56:40;;;;;;;3.17;2.67;;;15.20;76.20;;;;;;5136577;27;20053;-64
2021/10/19 08:59:07;;;;;;;2.72;2.22;;;15.20;76.30;;;;;;5137003;27;20038;-64
2021/10/19 09:01:38;;;;;;;2.80;2.50;;;15.20;76.30;;;;;;5135823;27;20047;-65
2021/10/19 09:04:09;;;;;;;3.30;3.00;;;15.30;76.30;;;;;;5136919;27;20150;-64
2021/10/19 09:06:37;;;;;;;2.95;2.65;;;15.20;76.30;;;;;;5136416;27;20483;-62
2021/10/19 09:09:11;;;;;;;3.20;2.83;;;15.20;76.30;;;;;;5136598;27;20039;-64
2021/10/19 09:11:37;;;;;;;3.45;2.63;;;15.30;76.40;;;;;;5136356;27;20035;-64
2021/10/19 09:14:03;;;;;;;3.10;2.80;;;15.20;76.40;;;;;;5136742;27;20054;-62
2021/10/19 09:16:43;;;;;;;2.60;2.40;;;15.20;77.10;;;;;;5136064;27;20398;-63
2021/10/19 09:19:17;;;;;;;3.78;3.03;;;15.30;76.40;;;;;;5136562;27;20075;-59
2021/10/19 09:21:45;;;;;;;2.90;2.60;;;15.30;76.50;;;;;;5135764;27;20035;-59
2021/10/19 09:24:19;;;;;;;2.70;2.25;;;15.20;76.50;;;;;;5136517;27;20043;-60
2021/10/19 09:27:06;;;;;;;3.63;2.70;;;15.20;76.40;;;;;;5135696;27;20058;-60
2021/10/19 09:29:46;;;;;;;2.97;2.63;;;15.30;76.50;;;;;;5136244;27;20122;-59
2021/10/19 09:32:13;;;;;;;3.30;2.90;;;15.30;76.60;;;;;;5135229;27;20032;-58
2021/10/19 09:34:43;;;;;;;2.80;2.42;;;15.20;76.50;;;;;;5136305;27;20046;-60
2021/10/19 09:37:16;;;;;;;2.50;2.30;;;15.20;76.50;;;;;;5136059;27;20055;-60
2021/10/19 09:39:44;;;;;;;2.83;2.53;;;15.20;76.50;;;;;;5136116;27;20126;-60
2021/10/19 09:42:22;;;;;;;3.25;2.50;;;15.20;76.50;;;;;;5135991;27;20073;-59
2021/10/19 09:44:59;;;;;;;2.72;2.50;;;15.30;76.50;;;;;;5135616;27;20149;-59
2021/10/19 09:47:25;;;;;;;3.38;2.85;;;15.30;76.50;;;;;;5135510;27;20126;-61
2021/10/19 09:49:53;;;;;;;2.55;2.35;;;15.30;76.60;;;;;;5135552;27;20122;-59
2021/10/19 09:52:19;;;;;;;2.47;2.15;;;15.30;76.60;;;;;;5135978;27;20043;-59
2021/10/19 09:54:49;;;;;;;2.80;2.60;;;15.20;76.50;;;;;;5135495;27;20043;-61
2021/10/19 09:57:16;;;;;;;3.22;2.53;;;15.30;76.50;;;;;;5135137;27;20039;-63
2021/10/19 09:59:42;;;;;;;2.58;2.33;;;15.30;76.60;;;;;;5135780;27;20395;-58
2021/10/19 10:02:13;;;;;;;2.55;2.25;;;15.20;76.50;;;;;;5135889;27;20043;-62
2021/10/19 10:04:40;;;;;;;3.38;3.08;;;15.30;76.60;;;;;;5134885;27;20498;-60
2021/10/19 10:07:08;;;;;;;3.08;2.38;;;15.30;76.60;;;;;;5135424;27;20417;-60
2021/10/19 10:09:35;;;;;;;2.67;2.47;;;15.30;76.60;;;;;;5135504;27;20099;-63
2021/10/19 10:12:06;;;;;;;2.45;2.25;;;15.20;76.60;;;;;;5135476;27;20492;-60
2021/10/19 10:14:45;;;;;;;2.40;2.20;;;15.30;76.60;;;;;;5135259;27;20095;-62
2021/10/19 10:17:13;;;;;;;2.65;2.45;;;15.30;76.50;;;;;;5134858;27;20079;-61
2021/10/19 10:19:41;;;;;;;2.35;2.15;;;15.30;76.60;;;;;;5135416;27;20062;-61
2021/10/19 10:22:18;;;;;;;2.20;2.00;;;15.30;76.60;;;;;;5135581;27;20525;-60
2021/10/19 10:24:45;;;;;;;2.58;2.30;;;15.30;76.50;;;;;;5135538;27;20039;-59
2021/10/19 10:27:25;;;;;;;2.78;2.35;;;15.30;76.60;;;;;;5134707;27;20475;-60
2021/10/19 10:29:50;;;;;;;2.40;2.10;;;15.30;76.50;;;;;;5135164;27;20046;-58
2021/10/19 10:32:26;;;;;;;2.33;2.10;;;15.30;76.60;;;;;;5135089;27;20042;-67
2021/10/19 10:35:11;;;;;;;2.80;2.40;;;15.30;76.60;;;;;;5135039;27;20140;-65
2021/10/19 10:37:57;;;;;;;2.45;2.25;;;15.30;76.60;;;;;;5134491;27;20050;-65
2021/10/19 10:40:32;;;;;;;2.42;2.22;;;15.30;76.50;;;;;;5116295;27;20050;-65
2021/10/19 10:43:00;;;;;;;2.50;1.90;;;15.30;76.60;;;;;;5135081;27;20043;-66
2021/10/19 10:45:34;;;;;;;2.40;2.20;;;15.40;76.60;;;;;;5134718;27;20035;-66
2021/10/19 10:48:05;;;;;;;2.60;2.40;;;15.30;76.60;;;;;;5134366;27;20485;-65
2021/10/19 10:50:36;;;;;;;2.47;2.28;;;15.30;76.60;;;;;;5134458;27;20463;-65
2021/10/19 10:53:05;;;;;;;2.03;1.83;;;15.30;76.60;;;;;;5134501;27;20039;-65
2021/10/19 10:55:38;;;;;;;2.20;2.00;;;15.30;76.60;;;;;;5134507;27;20053;-58
2021/10/19 10:58:04;;;;;;;2.92;2.35;;;15.30;76.60;;;;;;5115481;27;20047;-58
2021/10/19 11:00:30;;;;;;;1.80;1.70;;;15.30;76.60;;;;;;5133840;27;20084;-61
2021/10/19 11:03:16;;;;;;;1.85;1.58;;;15.30;76.60;;;;;;5134658;27;20055;-59
2021/10/19 11:05:54;;;;;;;2.33;2.13;;;15.30;76.50;;;;;;5134448;27;20123;-60
2021/10/19 11:08:21;;;;;;;2.20;2.00;;;15.30;76.60;;;;;;5132828;27;20039;-59
2021/10/19 11:10:50;;;;;;;1.67;1.58;;;15.30;76.60;;;;;;5134166;27;20049;-60
2021/10/19 11:13:16;;;;;;;2.30;2.00;;;15.30;76.60;;;;;;5134184;27;20368;-60
2021/10/19 11:15:50;;;;;;;2.10;1.90;;;15.30;76.60;;;;;;5133754;27;20039;-59
2021/10/19 11:18:17;;;;;;;2.08;1.83;;;15.30;76.50;;;;;;5133828;27;20507;-58
2021/10/19 11:20:52;;;;;;;2.28;2.08;;;15.30;76.50;;;;;;5133655;27;20039;-60
2021/10/19 11:23:18;;;;;;;2.08;1.88;;;15.20;76.40;;;;;;5133641;27;20039;-59
2021/10/19 11:25:45;;;;;;;2.17;1.98;;;15.30;76.50;;;;;;5134174;27;20043;-62
2021/10/19 11:28:11;;;;;;;1.88;1.75;;;15.30;76.50;;;;;;5133716;27;20087;-58
2021/10/19 11:30:37;;;;;;;1.92;1.73;;;15.30;76.40;;;;;;5115319;27;20139;-60
2021/10/19 11:33:06;;;;;;;1.90;1.70;;;15.30;76.40;;;;;;5133766;27;20470;-59
2021/10/19 11:35:32;;;;;;;1.70;1.50;;;15.30;76.40;;;;;;5133750;27;20035;-60
2021/10/19 11:37:58;;;;;;;1.77;1.60;;;15.30;76.40;;;;;;5133536;27;20058;-61
2021/10/19 11:40:25;;;;;;;2.00;1.80;;;15.30;76.40;;;;;;5133013;27;20035;-60
2021/10/19 11:42:53;;;;;;;1.98;1.77;;;15.30;76.30;;;;;;5133535;27;20505;-60
2021/10/19 11:45:23;;;;;;;1.98;1.88;;;15.30;76.30;;;;;;5133531;27;20043;-59
2021/10/19 11:47:51;;;;;;;1.80;1.67;;;15.30;76.30;;;;;;5115164;27;20050;-61
2021/10/19 11:50:21;;;;;;;1.60;1.50;;;15.30;76.30;;;;;;5133712;27;20151;-60
2021/10/19 11:52:48;;;;;;;1.60;1.50;;;15.30;76.30;;;;;;5133591;27;20128;-64
2021/10/19 11:55:16;;;;;;;1.80;1.70;;;15.30;76.30;;;;;;5132811;27;20504;-62
2021/10/19 11:57:41;;;;;;;1.83;1.63;;;15.30;76.30;;;;;;5133276;27;20055;-62
2021/10/19 12:00:10;;;;;;;1.90;1.70;;;15.30;76.20;;;;;;5133287;27;20039;-60
2021/10/19 12:02:50;;;;;;;2.72;1.63;;;15.30;76.20;;;;;;5133376;27;20043;-60
2021/10/19 12:05:16;;;;;;;1.58;1.48;;;15.30;76.20;;;;;;5133470;27;20482;-62
2021/10/19 12:07:53;;;;;;;2.17;1.80;;;15.30;76.20;;;;;;5133345;27;20049;-62
2021/10/19 12:10:27;;;;;;;1.90;1.70;;;15.30;76.10;;;;;;5132901;27;20035;-62
2021/10/19 12:13:25;;;;;;;1.30;1.20;;;15.30;76.20;;;;;;5133283;27;20107;-64
2021/10/19 12:15:55;;;;;;;1.60;1.50;;;15.30;76.10;;;;;;5030038;28;20144;-60
2021/10/19 12:18:21;;;;;;;2.40;1.63;;;15.30;76.20;;;;;;5014071;28;20080;-62
2021/10/19 12:20:48;;;;;;;1.88;1.50;;;15.30;76.20;;;;;;5036841;28;20540;-60
2021/10/19 12:23:14;;;;;;;1.38;1.25;;;15.30;76.20;;;;;;5036325;28;20045;-61
2021/10/19 12:25:46;;;;;;;1.90;1.70;;;15.30;76.20;;;;;;5020236;28;20057;-62
2021/10/19 12:28:21;;;;;;;1.67;1.58;;;15.30;76.10;;;;;;5036543;28;20083;-59
2021/10/19 12:30:47;;;;;;;1.70;1.60;;;15.30;76.10;;;;;;5036642;28;20080;-62
2021/10/19 12:33:21;;;;;;;1.77;1.60;;;15.30;76.20;;;;;;5036223;28;20111;-60
2021/10/19 12:35:56;;;;;;;1.45;1.35;;;15.30;76.10;;;;;;5036338;28;20034;-62
2021/10/19 12:38:55;;;;;;;1.40;1.30;;;15.40;76.10;;;;;;5035893;28;20064;-61
2021/10/19 12:41:21;;;;;;;1.25;1.15;;;15.40;76.10;;;;;;4977428;28;20062;-59
2021/10/19 12:43:49;;;;;;;1.55;1.45;;;15.30;76.10;;;;;;4975821;28;20067;-59
2021/10/19 12:46:17;;;;;;;1.50;1.40;;;15.40;76.20;;;;;;4977333;28;20059;-58
2021/10/19 12:48:43;;;;;;;1.33;1.23;;;15.30;76.10;;;;;;4977659;28;20398;-61